sensor_id;sensor_type;location;lat;lon;timestamp;temperature;humidity
5675;DHT22;2860;54.284;10.158;2022-07-19T00:01:11;14.30;99.90
5675;DHT22;2860;54.284;10.158;2022-07-19T00:03:36;14.30;99.90
5675;DHT22;2860;54.284;10.158;2022-07-19T00:06:02;14.30;99.90
5675;DHT22;2860;54.284;10.158;2022-07-19T00:08:28;14.20;99.90
5675;DHT22;2860;54.284;10.158;2022-07-19T00:10:53;14.20;99.90
5675;DHT22;2860;54.284;10.158;2022-07-19T00:13:19;14.20;99.90
5675;DHT22;2860;54.284;10.158;2022-07-19T00:15:44;14.10;99.90
5675;DHT22;2860;54.284;10.158;2022-07-19T00:18:10;14.10;99.90
5675;DHT22;2860;54.284;10.158;2022-07-19T00:20:35;14.00;99.90
5675;DHT22;2860;54.284;10.158;2022-07-19T00:23:01;14.00;99.90
5675;DHT22;2860;54.284;10.158;2022-07-19T00:25:26;14.00;99.90
5675;DHT22;2860;54.284;10.158;2022-07-19T00:27:52;13.90;99.90
5675;DHT22;2860;54.284;10.158;2022-07-19T00:30:17;13.90;99.90
5675;DHT22;2860;54.284;10.158;2022-07-19T00:32:43;13.90;99.90
5675;DHT22;2860;54.284;10.158;2022-07-19T00:35:09;13.90;99.90
5675;DHT22;2860;54.284;10.158;2022-07-19T00:37:34;13.80;99.90
5675;DHT22;2860;54.284;10.158;2022-07-19T00:40:00;13.80;99.90
5675;DHT22;2860;54.284;10.158;2022-07-19T00:42:26;13.80;99.90
5675;DHT22;2860;54.284;10.158;2022-07-19T00:44:52;13.80;99.90
5675;DHT22;2860;54.284;10.158;2022-07-19T00:47:17;13.70;99.90
5675;DHT22;2860;54.284;10.158;2022-07-19T00:49:43;13.70;99.90
5675;DHT22;2860;54.284;10.158;2022-07-19T00:52:09;13.70;99.90
5675;DHT22;2860;54.284;10.158;2022-07-19T00:54:38;13.60;99.90
5675;DHT22;2860;54.284;10.158;2022-07-19T00:57:05;13.60;99.90
5675;DHT22;2860;54.284;10.158;2022-07-19T00:59:31;13.60;99.90
5675;DHT22;2860;54.284;10.158;2022-07-19T01:01:58;13.50;99.90
5675;DHT22;2860;54.284;10.158;2022-07-19T01:04:24;13.50;99.90
5675;DHT22;2860;54.284;10.158;2022-07-19T01:06:49;13.50;99.90
5675;DHT22;2860;54.284;10.158;2022-07-19T01:09:15;13.40;99.90
5675;DHT22;2860;54.284;10.158;2022-07-19T01:11:41;13.40;99.90
5675;DHT22;2860;54.284;10.158;2022-07-19T01:14:06;13.30;99.90
5675;DHT22;2860;54.284;10.158;2022-07-19T01:16:32;13.40;99.90
5675;DHT22;2860;54.284;10.158;2022-07-19T01:18:57;13.30;99.90
5675;DHT22;2860;54.284;10.158;2022-07-19T01:21:25;13.30;99.90
5675;DHT22;2860;54.284;10.158;2022-07-19T01:23:51;13.30;99.90
5675;DHT22;2860;54.284;10.158;2022-07-19T01:26:17;13.30;99.90
5675;DHT22;2860;54.284;10.158;2022-07-19T01:28:44;13.20;99.90
5675;DHT22;2860;54.284;10.158;2022-07-19T01:31:10;13.10;99.90
5675;DHT22;2860;54.284;10.158;2022-07-19T01:33:43;13.10;99.90
5675;DHT22;2860;54.284;10.158;2022-07-19T01:36:09;13.10;99.90
5675;DHT22;2860;54.284;10.158;2022-07-19T01:38:35;13.10;99.90
5675;DHT22;2860;54.284;10.158;2022-07-19T01:41:01;13.00;99.90
5675;DHT22;2860;54.284;10.158;2022-07-19T01:43:26;13.00;99.90
5675;DHT22;2860;54.284;10.158;2022-07-19T01:45:52;13.00;99.90
5675;DHT22;2860;54.284;10.158;2022-07-19T01:48:19;13.00;99.90
5675;DHT22;2860;54.284;10.158;2022-07-19T01:50:45;12.90;99.90
5675;DHT22;2860;54.284;10.158;2022-07-19T01:53:10;12.90;99.90
5675;DHT22;2860;54.284;10.158;2022-07-19T01:55:36;12.90;99.90
5675;DHT22;2860;54.284;10.158;2022-07-19T01:58:02;12.90;99.90
5675;DHT22;2860;54.284;10.158;2022-07-19T02:00:27;12.80;99.90
5675;DHT22;2860;54.284;10.158;2022-07-19T02:02:53;12.80;99.90
5675;DHT22;2860;54.284;10.158;2022-07-19T02:05:19;12.80;99.90
5675;DHT22;2860;54.284;10.158;2022-07-19T02:07:44;12.80;99.90
5675;DHT22;2860;54.284;10.158;2022-07-19T02:10:10;12.70;99.90
5675;DHT22;2860;54.284;10.158;2022-07-19T02:12:36;12.70;99.90
5675;DHT22;2860;54.284;10.158;2022-07-19T02:15:02;12.70;99.90
5675;DHT22;2860;54.284;10.158;2022-07-19T02:17:28;12.70;99.90
5675;DHT22;2860;54.284;10.158;2022-07-19T02:19:54;12.70;99.90
5675;DHT22;2860;54.284;10.158;2022-07-19T02:22:19;12.60;99.90
5675;DHT22;2860;54.284;10.158;2022-07-19T02:24:45;12.60;99.90
5675;DHT22;2860;54.284;10.158;2022-07-19T02:27:11;12.60;99.90
5675;DHT22;2860;54.284;10.158;2022-07-19T02:29:37;12.60;99.90
5675;DHT22;2860;54.284;10.158;2022-07-19T02:32:02;12.50;99.90
5675;DHT22;2860;54.284;10.158;2022-07-19T02:34:28;12.50;99.90
5675;DHT22;2860;54.284;10.158;2022-07-19T02:36:54;12.50;99.90
5675;DHT22;2860;54.284;10.158;2022-07-19T02:39:20;12.50;99.90
5675;DHT22;2860;54.284;10.158;2022-07-19T02:41:45;12.50;99.90
5675;DHT22;2860;54.284;10.158;2022-07-19T02:44:11;12.40;99.90
5675;DHT22;2860;54.284;10.158;2022-07-19T02:46:36;12.40;99.90
5675;DHT22;2860;54.284;10.158;2022-07-19T02:49:02;12.40;99.90
5675;DHT22;2860;54.284;10.158;2022-07-19T02:51:28;12.30;99.90
5675;DHT22;2860;54.284;10.158;2022-07-19T02:53:54;12.30;99.90
5675;DHT22;2860;54.284;10.158;2022-07-19T02:56:19;12.30;99.90
5675;DHT22;2860;54.284;10.158;2022-07-19T02:58:45;12.30;99.90
5675;DHT22;2860;54.284;10.158;2022-07-19T03:01:10;12.30;99.90
5675;DHT22;2860;54.284;10.158;2022-07-19T03:03:36;12.30;99.90
5675;DHT22;2860;54.284;10.158;2022-07-19T03:06:13;12.20;99.90
5675;DHT22;2860;54.284;10.158;2022-07-19T03:08:39;12.20;99.90
5675;DHT22;2860;54.284;10.158;2022-07-19T03:11:05;12.20;99.90
5675;DHT22;2860;54.284;10.158;2022-07-19T03:13:30;12.20;99.90
5675;DHT22;2860;54.284;10.158;2022-07-19T03:15:56;12.10;99.90
5675;DHT22;2860;54.284;10.158;2022-07-19T03:18:21;12.20;99.90
5675;DHT22;2860;54.284;10.158;2022-07-19T03:20:47;12.20;99.90
5675;DHT22;2860;54.284;10.158;2022-07-19T03:23:12;12.20;99.90
5675;DHT22;2860;54.284;10.158;2022-07-19T03:25:38;12.20;99.90
5675;DHT22;2860;54.284;10.158;2022-07-19T03:28:04;12.10;99.90
5675;DHT22;2860;54.284;10.158;2022-07-19T03:30:29;12.10;99.90
5675;DHT22;2860;54.284;10.158;2022-07-19T03:32:57;12.20;99.90
5675;DHT22;2860;54.284;10.158;2022-07-19T03:35:22;12.20;99.90
5675;DHT22;2860;54.284;10.158;2022-07-19T03:37:48;12.20;99.90
5675;DHT22;2860;54.284;10.158;2022-07-19T03:40:14;12.20;99.90
5675;DHT22;2860;54.284;10.158;2022-07-19T03:42:39;12.20;99.90
5675;DHT22;2860;54.284;10.158;2022-07-19T03:45:05;12.30;99.90
5675;DHT22;2860;54.284;10.158;2022-07-19T03:47:31;12.30;99.90
5675;DHT22;2860;54.284;10.158;2022-07-19T03:49:56;12.30;99.90
5675;DHT22;2860;54.284;10.158;2022-07-19T03:52:23;12.30;99.90
5675;DHT22;2860;54.284;10.158;2022-07-19T03:54:49;12.30;99.90
5675;DHT22;2860;54.284;10.158;2022-07-19T03:57:14;12.40;99.90
5675;DHT22;2860;54.284;10.158;2022-07-19T03:59:40;12.40;99.90
5675;DHT22;2860;54.284;10.158;2022-07-19T04:02:05;12.40;99.90
5675;DHT22;2860;54.284;10.158;2022-07-19T04:04:31;12.50;99.90
5675;DHT22;2860;54.284;10.158;2022-07-19T04:06:57;12.50;99.90
5675;DHT22;2860;54.284;10.158;2022-07-19T04:09:24;12.50;99.90
5675;DHT22;2860;54.284;10.158;2022-07-19T04:11:49;12.60;99.90
5675;DHT22;2860;54.284;10.158;2022-07-19T04:14:15;12.60;99.90
5675;DHT22;2860;54.284;10.158;2022-07-19T04:16:40;12.60;99.90
5675;DHT22;2860;54.284;10.158;2022-07-19T04:19:06;12.70;99.90
5675;DHT22;2860;54.284;10.158;2022-07-19T04:21:32;12.70;99.90
5675;DHT22;2860;54.284;10.158;2022-07-19T04:23:57;12.80;99.90
5675;DHT22;2860;54.284;10.158;2022-07-19T04:26:23;12.80;99.90
5675;DHT22;2860;54.284;10.158;2022-07-19T04:28:49;12.90;99.90
5675;DHT22;2860;54.284;10.158;2022-07-19T04:31:14;13.00;99.90
5675;DHT22;2860;54.284;10.158;2022-07-19T04:33:40;13.10;99.90
5675;DHT22;2860;54.284;10.158;2022-07-19T04:36:06;13.20;99.90
5675;DHT22;2860;54.284;10.158;2022-07-19T04:38:31;13.30;99.90
5675;DHT22;2860;54.284;10.158;2022-07-19T04:40:57;13.30;99.90
5675;DHT22;2860;54.284;10.158;2022-07-19T04:43:22;13.40;99.90
5675;DHT22;2860;54.284;10.158;2022-07-19T04:45:48;13.50;99.90
5675;DHT22;2860;54.284;10.158;2022-07-19T04:48:13;13.60;99.90
5675;DHT22;2860;54.284;10.158;2022-07-19T04:50:40;13.70;99.90
5675;DHT22;2860;54.284;10.158;2022-07-19T04:53:06;13.80;99.90
5675;DHT22;2860;54.284;10.158;2022-07-19T04:55:31;13.90;99.90
5675;DHT22;2860;54.284;10.158;2022-07-19T04:57:57;13.90;99.90
5675;DHT22;2860;54.284;10.158;2022-07-19T05:00:22;14.00;99.90
5675;DHT22;2860;54.284;10.158;2022-07-19T05:02:48;14.20;99.90
5675;DHT22;2860;54.284;10.158;2022-07-19T05:05:14;14.30;99.90
5675;DHT22;2860;54.284;10.158;2022-07-19T05:07:40;14.90;99.90
5675;DHT22;2860;54.284;10.158;2022-07-19T05:10:06;15.90;99.90
5675;DHT22;2860;54.284;10.158;2022-07-19T05:12:31;16.90;99.90
5675;DHT22;2860;54.284;10.158;2022-07-19T05:14:57;18.00;99.90
5675;DHT22;2860;54.284;10.158;2022-07-19T05:17:23;18.90;99.90
5675;DHT22;2860;54.284;10.158;2022-07-19T05:19:49;19.80;99.90
5675;DHT22;2860;54.284;10.158;2022-07-19T05:22:14;20.70;99.90
5675;DHT22;2860;54.284;10.158;2022-07-19T05:24:40;21.50;99.90
5675;DHT22;2860;54.284;10.158;2022-07-19T05:27:06;22.20;99.90
5675;DHT22;2860;54.284;10.158;2022-07-19T05:29:31;23.00;99.90
5675;DHT22;2860;54.284;10.158;2022-07-19T05:31:57;23.50;99.90
5675;DHT22;2860;54.284;10.158;2022-07-19T05:34:22;24.00;99.90
5675;DHT22;2860;54.284;10.158;2022-07-19T05:36:48;24.40;99.90
5675;DHT22;2860;54.284;10.158;2022-07-19T05:39:13;24.80;99.90
5675;DHT22;2860;54.284;10.158;2022-07-19T05:41:40;25.20;99.90
5675;DHT22;2860;54.284;10.158;2022-07-19T05:44:05;25.60;99.90
5675;DHT22;2860;54.284;10.158;2022-07-19T05:46:31;25.90;99.90
5675;DHT22;2860;54.284;10.158;2022-07-19T05:48:57;26.20;99.90
5675;DHT22;2860;54.284;10.158;2022-07-19T05:51:22;26.40;99.90
5675;DHT22;2860;54.284;10.158;2022-07-19T05:53:48;26.70;99.90
5675;DHT22;2860;54.284;10.158;2022-07-19T05:56:13;26.90;99.90
5675;DHT22;2860;54.284;10.158;2022-07-19T05:58:39;27.10;99.90
5675;DHT22;2860;54.284;10.158;2022-07-19T06:01:05;27.30;99.90
5675;DHT22;2860;54.284;10.158;2022-07-19T06:03:54;27.40;99.90
5675;DHT22;2860;54.284;10.158;2022-07-19T06:06:20;27.50;99.90
5675;DHT22;2860;54.284;10.158;2022-07-19T06:08:46;27.50;99.90
5675;DHT22;2860;54.284;10.158;2022-07-19T06:11:13;27.60;99.90
5675;DHT22;2860;54.284;10.158;2022-07-19T06:13:39;27.70;99.90
5675;DHT22;2860;54.284;10.158;2022-07-19T06:16:05;27.80;99.90
5675;DHT22;2860;54.284;10.158;2022-07-19T06:18:31;27.80;99.90
5675;DHT22;2860;54.284;10.158;2022-07-19T06:21:03;27.70;99.90
5675;DHT22;2860;54.284;10.158;2022-07-19T06:23:29;27.70;99.90
5675;DHT22;2860;54.284;10.158;2022-07-19T06:25:55;27.70;99.90
5675;DHT22;2860;54.284;10.158;2022-07-19T06:28:20;27.60;99.90
5675;DHT22;2860;54.284;10.158;2022-07-19T06:30:46;27.50;99.90
5675;DHT22;2860;54.284;10.158;2022-07-19T06:33:11;27.40;99.90
5675;DHT22;2860;54.284;10.158;2022-07-19T06:35:38;27.30;99.90
5675;DHT22;2860;54.284;10.158;2022-07-19T06:38:04;27.20;99.90
5675;DHT22;2860;54.284;10.158;2022-07-19T06:40:29;27.00;99.90
5675;DHT22;2860;54.284;10.158;2022-07-19T06:42:55;26.80;99.90
5675;DHT22;2860;54.284;10.158;2022-07-19T06:45:20;26.60;99.90
5675;DHT22;2860;54.284;10.158;2022-07-19T06:47:46;26.40;99.90
5675;DHT22;2860;54.284;10.158;2022-07-19T06:50:11;26.20;99.90
5675;DHT22;2860;54.284;10.158;2022-07-19T06:52:37;25.90;99.90
5675;DHT22;2860;54.284;10.158;2022-07-19T06:55:03;25.70;99.90
5675;DHT22;2860;54.284;10.158;2022-07-19T06:57:28;25.50;99.90
5675;DHT22;2860;54.284;10.158;2022-07-19T06:59:54;25.30;99.90
5675;DHT22;2860;54.284;10.158;2022-07-19T07:02:19;25.20;99.90
5675;DHT22;2860;54.284;10.158;2022-07-19T07:04:45;25.10;99.90
5675;DHT22;2860;54.284;10.158;2022-07-19T07:07:10;25.00;99.90
5675;DHT22;2860;54.284;10.158;2022-07-19T07:09:36;24.90;99.90
5675;DHT22;2860;54.284;10.158;2022-07-19T07:12:01;24.90;99.90
5675;DHT22;2860;54.284;10.158;2022-07-19T07:14:27;24.90;99.90
5675;DHT22;2860;54.284;10.158;2022-07-19T07:16:53;24.90;99.90
5675;DHT22;2860;54.284;10.158;2022-07-19T07:19:18;24.90;99.90
5675;DHT22;2860;54.284;10.158;2022-07-19T07:21:44;24.90;99.90
5675;DHT22;2860;54.284;10.158;2022-07-19T07:24:09;25.00;99.90
5675;DHT22;2860;54.284;10.158;2022-07-19T07:26:35;25.10;99.90
5675;DHT22;2860;54.284;10.158;2022-07-19T07:29:00;25.10;99.90
5675;DHT22;2860;54.284;10.158;2022-07-19T07:31:26;25.20;99.90
5675;DHT22;2860;54.284;10.158;2022-07-19T07:33:51;25.30;99.90
5675;DHT22;2860;54.284;10.158;2022-07-19T07:36:17;25.40;99.90
5675;DHT22;2860;54.284;10.158;2022-07-19T07:38:42;25.50;99.90
5675;DHT22;2860;54.284;10.158;2022-07-19T07:41:08;25.60;99.90
5675;DHT22;2860;54.284;10.158;2022-07-19T07:43:35;25.70;99.90
5675;DHT22;2860;54.284;10.158;2022-07-19T07:46:01;25.80;99.90
5675;DHT22;2860;54.284;10.158;2022-07-19T07:48:27;25.90;99.90
5675;DHT22;2860;54.284;10.158;2022-07-19T07:50:52;26.00;99.90
5675;DHT22;2860;54.284;10.158;2022-07-19T07:53:18;26.00;99.90
5675;DHT22;2860;54.284;10.158;2022-07-19T07:55:43;26.20;99.90
5675;DHT22;2860;54.284;10.158;2022-07-19T07:58:10;26.20;99.90
5675;DHT22;2860;54.284;10.158;2022-07-19T08:00:37;26.30;99.90
5675;DHT22;2860;54.284;10.158;2022-07-19T08:03:03;26.40;99.90
5675;DHT22;2860;54.284;10.158;2022-07-19T08:05:28;26.50;99.90
5675;DHT22;2860;54.284;10.158;2022-07-19T08:07:54;26.60;99.90
5675;DHT22;2860;54.284;10.158;2022-07-19T08:10:22;26.70;99.90
5675;DHT22;2860;54.284;10.158;2022-07-19T08:12:47;26.80;99.90
5675;DHT22;2860;54.284;10.158;2022-07-19T08:15:13;26.90;99.90
5675;DHT22;2860;54.284;10.158;2022-07-19T08:17:38;27.00;99.90
5675;DHT22;2860;54.284;10.158;2022-07-19T08:20:05;27.20;99.90
5675;DHT22;2860;54.284;10.158;2022-07-19T08:22:31;27.30;99.90
5675;DHT22;2860;54.284;10.158;2022-07-19T08:24:56;27.50;99.90
5675;DHT22;2860;54.284;10.158;2022-07-19T08:27:22;27.70;99.90
5675;DHT22;2860;54.284;10.158;2022-07-19T08:29:47;27.80;99.90
5675;DHT22;2860;54.284;10.158;2022-07-19T08:32:13;27.90;99.90
5675;DHT22;2860;54.284;10.158;2022-07-19T08:34:38;28.00;99.90
5675;DHT22;2860;54.284;10.158;2022-07-19T08:37:04;28.00;99.90
5675;DHT22;2860;54.284;10.158;2022-07-19T08:39:29;28.10;99.90
5675;DHT22;2860;54.284;10.158;2022-07-19T08:41:55;28.10;99.90
5675;DHT22;2860;54.284;10.158;2022-07-19T08:44:21;28.20;99.90
5675;DHT22;2860;54.284;10.158;2022-07-19T08:46:48;28.10;99.90
5675;DHT22;2860;54.284;10.158;2022-07-19T08:49:14;28.20;99.90
5675;DHT22;2860;54.284;10.158;2022-07-19T08:51:41;28.30;99.90
5675;DHT22;2860;54.284;10.158;2022-07-19T08:54:07;28.40;99.90
5675;DHT22;2860;54.284;10.158;2022-07-19T08:56:33;28.50;99.90
5675;DHT22;2860;54.284;10.158;2022-07-19T08:59:17;28.70;99.90
5675;DHT22;2860;54.284;10.158;2022-07-19T09:01:42;28.80;99.90
5675;DHT22;2860;54.284;10.158;2022-07-19T09:04:09;28.80;99.90
5675;DHT22;2860;54.284;10.158;2022-07-19T09:06:48;28.80;99.90
5675;DHT22;2860;54.284;10.158;2022-07-19T09:09:17;28.80;99.90
5675;DHT22;2860;54.284;10.158;2022-07-19T09:11:45;29.00;99.90
5675;DHT22;2860;54.284;10.158;2022-07-19T09:14:18;29.10;99.90
5675;DHT22;2860;54.284;10.158;2022-07-19T09:17:05;29.30;99.90
5675;DHT22;2860;54.284;10.158;2022-07-19T09:19:44;29.40;99.90
5675;DHT22;2860;54.284;10.158;2022-07-19T09:22:12;29.50;99.90
5675;DHT22;2860;54.284;10.158;2022-07-19T09:24:40;29.60;99.90
5675;DHT22;2860;54.284;10.158;2022-07-19T09:27:08;29.60;99.90
5675;DHT22;2860;54.284;10.158;2022-07-19T09:29:36;29.60;99.90
5675;DHT22;2860;54.284;10.158;2022-07-19T09:32:11;29.70;99.90
5675;DHT22;2860;54.284;10.158;2022-07-19T09:35:07;29.70;99.90
5675;DHT22;2860;54.284;10.158;2022-07-19T09:37:33;29.70;99.90
5675;DHT22;2860;54.284;10.158;2022-07-19T09:40:08;29.80;99.90
5675;DHT22;2860;54.284;10.158;2022-07-19T09:42:38;30.00;99.90
5675;DHT22;2860;54.284;10.158;2022-07-19T09:45:12;30.00;99.90
5675;DHT22;2860;54.284;10.158;2022-07-19T09:47:41;30.10;99.90
5675;DHT22;2860;54.284;10.158;2022-07-19T09:50:09;30.10;99.90
5675;DHT22;2860;54.284;10.158;2022-07-19T09:52:36;30.10;99.90
5675;DHT22;2860;54.284;10.158;2022-07-19T09:55:03;30.10;99.90
5675;DHT22;2860;54.284;10.158;2022-07-19T09:57:35;30.10;99.90
5675;DHT22;2860;54.284;10.158;2022-07-19T10:00:04;30.00;99.90
5675;DHT22;2860;54.284;10.158;2022-07-19T10:02:34;30.00;99.90
5675;DHT22;2860;54.284;10.158;2022-07-19T10:05:02;30.20;99.90
5675;DHT22;2860;54.284;10.158;2022-07-19T10:07:28;30.40;99.90
5675;DHT22;2860;54.284;10.158;2022-07-19T10:09:54;30.60;99.90
5675;DHT22;2860;54.284;10.158;2022-07-19T10:12:21;30.70;99.90
5675;DHT22;2860;54.284;10.158;2022-07-19T10:14:47;30.90;99.90
5675;DHT22;2860;54.284;10.158;2022-07-19T10:20:42;30.90;99.90
5675;DHT22;2860;54.284;10.158;2022-07-19T10:23:08;31.00;99.90
5675;DHT22;2860;54.284;10.158;2022-07-19T10:25:39;30.90;99.90
5675;DHT22;2860;54.284;10.158;2022-07-19T10:28:05;30.80;99.90
5675;DHT22;2860;54.284;10.158;2022-07-19T10:30:40;31.00;99.90
5675;DHT22;2860;54.284;10.158;2022-07-19T10:33:32;31.10;99.90
5675;DHT22;2860;54.284;10.158;2022-07-19T10:36:38;31.20;99.90
5675;DHT22;2860;54.284;10.158;2022-07-19T10:39:29;31.20;99.90
5675;DHT22;2860;54.284;10.158;2022-07-19T10:42:21;31.20;99.90
5675;DHT22;2860;54.284;10.158;2022-07-19T10:50:04;31.50;99.90
5675;DHT22;2860;54.284;10.158;2022-07-19T10:52:38;31.60;99.90
5675;DHT22;2860;54.284;10.158;2022-07-19T11:00:25;32.00;99.90
5675;DHT22;2860;54.284;10.158;2022-07-19T11:02:52;32.10;99.90
5675;DHT22;2860;54.284;10.158;2022-07-19T11:05:29;32.20;99.90
5675;DHT22;2860;54.284;10.158;2022-07-19T11:07:56;32.20;99.90
5675;DHT22;2860;54.284;10.158;2022-07-19T11:10:23;32.30;99.90
5675;DHT22;2860;54.284;10.158;2022-07-19T11:12:49;32.40;99.90
5675;DHT22;2860;54.284;10.158;2022-07-19T11:15:15;32.60;99.90
5675;DHT22;2860;54.284;10.158;2022-07-19T11:18:00;32.70;99.90
5675;DHT22;2860;54.284;10.158;2022-07-19T11:20:30;32.80;99.90
5675;DHT22;2860;54.284;10.158;2022-07-19T11:22:57;32.60;99.90
5675;DHT22;2860;54.284;10.158;2022-07-19T11:25:29;32.70;99.90
5675;DHT22;2860;54.284;10.158;2022-07-19T11:27:54;32.90;99.90
5675;DHT22;2860;54.284;10.158;2022-07-19T11:30:22;33.00;99.90
5675;DHT22;2860;54.284;10.158;2022-07-19T11:33:02;33.00;99.90
5675;DHT22;2860;54.284;10.158;2022-07-19T11:35:29;33.00;99.90
5675;DHT22;2860;54.284;10.158;2022-07-19T11:37:57;33.00;99.90
5675;DHT22;2860;54.284;10.158;2022-07-19T11:40:23;33.00;99.90
5675;DHT22;2860;54.284;10.158;2022-07-19T11:42:50;32.90;99.90
5675;DHT22;2860;54.284;10.158;2022-07-19T11:45:18;32.80;99.90
5675;DHT22;2860;54.284;10.158;2022-07-19T11:47:46;32.80;99.90
5675;DHT22;2860;54.284;10.158;2022-07-19T11:50:20;32.90;99.90
5675;DHT22;2860;54.284;10.158;2022-07-19T11:52:51;33.00;99.90
5675;DHT22;2860;54.284;10.158;2022-07-19T11:55:20;33.20;99.90
5675;DHT22;2860;54.284;10.158;2022-07-19T11:57:46;33.40;99.90
5675;DHT22;2860;54.284;10.158;2022-07-19T12:00:12;33.50;99.90
5675;DHT22;2860;54.284;10.158;2022-07-19T12:02:56;33.60;99.90
5675;DHT22;2860;54.284;10.158;2022-07-19T12:05:26;33.60;99.80
5675;DHT22;2860;54.284;10.158;2022-07-19T12:07:54;33.70;99.90
5675;DHT22;2860;54.284;10.158;2022-07-19T12:10:42;33.80;99.90
5675;DHT22;2860;54.284;10.158;2022-07-19T12:13:14;34.00;99.90
5675;DHT22;2860;54.284;10.158;2022-07-19T12:15:54;34.00;99.90
5675;DHT22;2860;54.284;10.158;2022-07-19T12:18:22;34.00;99.90
5675;DHT22;2860;54.284;10.158;2022-07-19T12:26:35;33.50;98.30
5675;DHT22;2860;54.284;10.158;2022-07-19T12:29:01;33.60;99.90
5675;DHT22;2860;54.284;10.158;2022-07-19T12:31:26;33.70;99.90
5675;DHT22;2860;54.284;10.158;2022-07-19T12:34:00;33.80;99.20
5675;DHT22;2860;54.284;10.158;2022-07-19T12:36:33;33.90;99.90
5675;DHT22;2860;54.284;10.158;2022-07-19T12:38:59;33.90;98.90
5675;DHT22;2860;54.284;10.158;2022-07-19T12:41:24;33.80;96.30
5675;DHT22;2860;54.284;10.158;2022-07-19T12:43:50;33.70;95.50
5675;DHT22;2860;54.284;10.158;2022-07-19T12:46:15;33.50;97.00
5675;DHT22;2860;54.284;10.158;2022-07-19T12:48:41;33.40;97.80
5675;DHT22;2860;54.284;10.158;2022-07-19T12:51:06;33.40;96.50
5675;DHT22;2860;54.284;10.158;2022-07-19T12:53:32;33.40;96.00
5675;DHT22;2860;54.284;10.158;2022-07-19T12:55:58;33.40;95.60
5675;DHT22;2860;54.284;10.158;2022-07-19T12:58:23;33.50;97.10
5675;DHT22;2860;54.284;10.158;2022-07-19T13:01:07;33.60;98.90
5675;DHT22;2860;54.284;10.158;2022-07-19T13:03:34;33.70;96.80
5675;DHT22;2860;54.284;10.158;2022-07-19T13:05:59;33.80;98.20
5675;DHT22;2860;54.284;10.158;2022-07-19T13:08:26;33.90;98.10
5675;DHT22;2860;54.284;10.158;2022-07-19T13:10:54;33.90;98.20
5675;DHT22;2860;54.284;10.158;2022-07-19T13:13:19;33.70;97.10
5675;DHT22;2860;54.284;10.158;2022-07-19T13:15:45;33.70;97.90
5675;DHT22;2860;54.284;10.158;2022-07-19T13:18:11;33.60;95.00
5675;DHT22;2860;54.284;10.158;2022-07-19T13:20:38;33.50;97.30
5675;DHT22;2860;54.284;10.158;2022-07-19T13:23:03;33.50;98.20
5675;DHT22;2860;54.284;10.158;2022-07-19T13:25:29;33.60;97.00
5675;DHT22;2860;54.284;10.158;2022-07-19T13:27:54;33.70;97.10
5675;DHT22;2860;54.284;10.158;2022-07-19T13:30:20;33.80;98.10
5675;DHT22;2860;54.284;10.158;2022-07-19T13:32:46;33.80;97.60
5675;DHT22;2860;54.284;10.158;2022-07-19T13:35:13;33.50;94.70
5675;DHT22;2860;54.284;10.158;2022-07-19T13:37:38;33.50;95.40
5675;DHT22;2860;54.284;10.158;2022-07-19T13:40:04;33.60;96.00
5675;DHT22;2860;54.284;10.158;2022-07-19T13:42:30;33.60;97.00
5675;DHT22;2860;54.284;10.158;2022-07-19T13:44:56;33.70;98.30
5675;DHT22;2860;54.284;10.158;2022-07-19T13:47:21;33.60;96.20
5675;DHT22;2860;54.284;10.158;2022-07-19T13:49:47;33.50;95.10
5675;DHT22;2860;54.284;10.158;2022-07-19T13:52:12;33.40;95.70
5675;DHT22;2860;54.284;10.158;2022-07-19T13:54:38;33.20;94.60
5675;DHT22;2860;54.284;10.158;2022-07-19T13:57:03;33.10;95.30
5675;DHT22;2860;54.284;10.158;2022-07-19T13:59:29;33.00;95.60
5675;DHT22;2860;54.284;10.158;2022-07-19T14:01:56;33.10;96.70
5675;DHT22;2860;54.284;10.158;2022-07-19T14:04:22;33.10;96.00
5675;DHT22;2860;54.284;10.158;2022-07-19T14:06:47;33.10;94.90
5675;DHT22;2860;54.284;10.158;2022-07-19T14:09:13;33.10;95.20
5675;DHT22;2860;54.284;10.158;2022-07-19T14:11:39;33.10;96.40
5675;DHT22;2860;54.284;10.158;2022-07-19T14:14:04;33.10;97.10
5675;DHT22;2860;54.284;10.158;2022-07-19T14:16:30;33.20;98.00
5675;DHT22;2860;54.284;10.158;2022-07-19T14:18:55;33.30;96.10
5675;DHT22;2860;54.284;10.158;2022-07-19T14:21:21;33.20;96.80
5675;DHT22;2860;54.284;10.158;2022-07-19T14:23:47;33.30;97.20
5675;DHT22;2860;54.284;10.158;2022-07-19T14:26:13;33.50;97.40
5675;DHT22;2860;54.284;10.158;2022-07-19T14:28:38;33.70;98.90
5675;DHT22;2860;54.284;10.158;2022-07-19T14:31:04;33.70;95.70
5675;DHT22;2860;54.284;10.158;2022-07-19T14:33:30;33.80;96.80
5675;DHT22;2860;54.284;10.158;2022-07-19T14:35:55;33.90;97.90
5675;DHT22;2860;54.284;10.158;2022-07-19T14:38:21;33.90;97.20
5675;DHT22;2860;54.284;10.158;2022-07-19T14:40:46;33.90;97.60
5675;DHT22;2860;54.284;10.158;2022-07-19T14:43:12;33.90;97.40
5675;DHT22;2860;54.284;10.158;2022-07-19T14:45:37;33.80;96.50
5675;DHT22;2860;54.284;10.158;2022-07-19T14:48:03;33.70;96.40
5675;DHT22;2860;54.284;10.158;2022-07-19T14:50:29;33.50;95.10
5675;DHT22;2860;54.284;10.158;2022-07-19T14:52:55;33.40;95.40
5675;DHT22;2860;54.284;10.158;2022-07-19T14:55:20;33.30;95.40
5675;DHT22;2860;54.284;10.158;2022-07-19T14:57:46;33.20;96.00
5675;DHT22;2860;54.284;10.158;2022-07-19T15:00:12;33.40;96.70
5675;DHT22;2860;54.284;10.158;2022-07-19T15:02:39;33.50;97.30
5675;DHT22;2860;54.284;10.158;2022-07-19T15:05:05;33.60;98.70
5675;DHT22;2860;54.284;10.158;2022-07-19T15:07:31;33.70;96.40
5675;DHT22;2860;54.284;10.158;2022-07-19T15:09:56;33.70;96.80
5675;DHT22;2860;54.284;10.158;2022-07-19T15:12:23;33.70;97.50
5675;DHT22;2860;54.284;10.158;2022-07-19T15:14:48;33.70;97.00
5675;DHT22;2860;54.284;10.158;2022-07-19T15:17:15;33.80;98.20
5675;DHT22;2860;54.284;10.158;2022-07-19T15:19:41;33.70;95.80
5675;DHT22;2860;54.284;10.158;2022-07-19T15:22:07;33.70;95.60
5675;DHT22;2860;54.284;10.158;2022-07-19T15:24:32;33.70;95.90
5675;DHT22;2860;54.284;10.158;2022-07-19T15:26:58;33.70;97.30
5675;DHT22;2860;54.284;10.158;2022-07-19T15:29:23;33.70;94.90
5675;DHT22;2860;54.284;10.158;2022-07-19T15:31:49;33.50;95.90
5675;DHT22;2860;54.284;10.158;2022-07-19T15:34:15;33.50;98.60
5675;DHT22;2860;54.284;10.158;2022-07-19T15:36:41;33.50;99.90
5675;DHT22;2860;54.284;10.158;2022-07-19T15:39:07;33.50;99.90
5675;DHT22;2860;54.284;10.158;2022-07-19T15:41:33;33.50;99.90
5675;DHT22;2860;54.284;10.158;2022-07-19T15:44:00;33.50;98.50
5675;DHT22;2860;54.284;10.158;2022-07-19T15:46:29;33.50;98.60
5675;DHT22;2860;54.284;10.158;2022-07-19T15:48:56;33.60;99.60
5675;DHT22;2860;54.284;10.158;2022-07-19T15:51:22;33.60;99.90
5675;DHT22;2860;54.284;10.158;2022-07-19T15:53:47;33.50;99.90
5675;DHT22;2860;54.284;10.158;2022-07-19T15:56:13;33.50;99.90
5675;DHT22;2860;54.284;10.158;2022-07-19T15:58:39;33.30;94.60
5675;DHT22;2860;54.284;10.158;2022-07-19T16:01:04;33.20;95.20
5675;DHT22;2860;54.284;10.158;2022-07-19T16:03:30;33.10;95.80